createdAt,value
2023-01-21T00:02:01.051Z,101120.21
2023-01-21T00:05:07.181Z,101125.35
2023-01-21T00:08:16.156Z,101118.34
2023-01-21T00:11:28.518Z,101114.00
2023-01-21T00:14:35.003Z,101113.12
2023-01-21T00:17:43.550Z,101125.78
2023-01-21T00:20:48.695Z,101113.73
2023-01-21T00:24:00.877Z,101114.05
2023-01-21T00:27:07.062Z,101108.94
2023-01-21T00:30:12.507Z,101106.85
2023-01-21T00:33:21.008Z,101109.16
2023-01-21T00:36:29.273Z,101115.27
2023-01-21T00:39:34.337Z,101109.47
2023-01-21T00:42:40.994Z,101104.95
2023-01-21T00:45:46.836Z,101119.03
2023-01-21T00:48:53.892Z,101118.09
2023-01-21T00:52:01.792Z,101112.44
2023-01-21T00:55:07.566Z,101104.81
2023-01-21T00:58:12.880Z,101096.03
2023-01-21T01:01:23.902Z,101098.98
2023-01-21T01:04:29.371Z,101102.56
2023-01-21T01:07:35.659Z,101109.23
2023-01-21T01:10:42.667Z,101106.16
2023-01-21T01:13:50.169Z,101107.72
2023-01-21T01:16:57.299Z,101100.20
2023-01-21T01:20:05.460Z,101093.82
2023-01-21T01:23:12.960Z,101087.84
2023-01-21T01:26:22.864Z,101072.62
2023-01-21T01:29:28.082Z,101079.03
2023-01-21T01:32:33.827Z,101074.53
2023-01-21T01:35:40.296Z,101064.50
2023-01-21T01:38:46.247Z,101068.92
2023-01-21T01:41:52.950Z,101068.92
2023-01-21T01:45:19.659Z,101067.20
2023-01-21T01:48:30.633Z,101076.55
2023-01-21T01:51:40.211Z,101075.19
2023-01-21T01:54:51.190Z,101059.84
2023-01-21T01:58:01.058Z,101063.99
2023-01-21T02:01:06.227Z,101089.84
2023-01-21T02:04:12.109Z,101087.55
2023-01-21T02:07:18.938Z,101088.28
2023-01-21T02:10:27.667Z,101082.52
2023-01-21T02:13:35.859Z,101088.28
2023-01-21T02:16:53.528Z,101092.33
2023-01-21T02:20:28.156Z,101080.95
2023-01-21T02:23:40.280Z,101078.92
2023-01-21T02:27:30.401Z,101068.60
2023-01-21T02:31:06.532Z,101067.83
2023-01-21T02:34:29.082Z,101077.25
2023-01-21T02:38:01.652Z,101080.94
2023-01-21T02:41:18.477Z,101076.36
2023-01-21T02:44:27.901Z,101068.53
2023-01-21T02:48:15.897Z,101085.75
2023-01-21T02:51:22.158Z,101083.14
2023-01-21T02:54:49.317Z,101074.39
2023-01-21T02:57:59.826Z,101072.67
2023-01-21T03:01:35.971Z,101046.27
2023-01-21T03:05:16.992Z,101058.88
2023-01-21T03:08:39.559Z,101067.74
2023-01-21T03:11:44.670Z,101075.06
2023-01-21T03:15:18.269Z,101091.45
2023-01-21T03:18:40.568Z,101094.52
2023-01-21T03:21:45.524Z,101095.39
2023-01-21T03:24:52.511Z,101115.75
2023-01-21T03:28:00.446Z,101109.58
2023-01-21T03:31:11.763Z,101095.34
2023-01-21T03:34:20.660Z,101098.06
2023-01-21T03:37:32.098Z,101080.42
2023-01-21T03:40:51.903Z,101075.80
2023-01-21T03:43:57.824Z,101075.86
2023-01-21T03:47:18.977Z,101078.66
2023-01-21T03:50:37.712Z,101080.87
2023-01-21T03:53:44.078Z,101074.23
2023-01-21T03:56:49.655Z,101075.02
2023-01-21T03:59:55.777Z,101080.42
2023-01-21T04:03:03.594Z,101090.73
2023-01-21T04:06:09.774Z,101083.02
2023-01-21T04:09:15.333Z,101072.64
2023-01-21T04:12:21.935Z,101060.59
2023-01-21T04:15:26.858Z,101072.64
2023-01-21T04:18:32.683Z,101064.19
2023-01-21T04:21:37.718Z,101062.73
2023-01-21T04:24:43.913Z,101080.06
2023-01-21T04:27:50.032Z,101082.48
2023-01-21T04:30:55.936Z,101065.43
2023-01-21T04:34:02.110Z,101060.61
2023-01-21T04:37:08.674Z,101070.25
2023-01-21T04:40:14.459Z,101069.89
2023-01-21T04:43:20.679Z,101073.83
2023-01-21T04:46:26.528Z,101070.63
2023-01-21T04:49:31.921Z,101072.85
2023-01-21T04:52:37.758Z,101080.06
2023-01-21T04:55:44.927Z,101071.34
2023-01-21T04:58:50.419Z,101080.78
2023-01-21T05:01:58.533Z,101091.09
2023-01-21T05:05:05.430Z,101073.83
2023-01-21T05:08:11.718Z,101070.66
2023-01-21T05:11:17.705Z,101057.39
2023-01-21T05:14:23.783Z,101068.08
2023-01-21T05:17:29.931Z,101064.91
2023-01-21T05:20:37.503Z,101066.56
2023-01-21T05:23:43.859Z,101056.28
2023-01-21T05:26:48.897Z,101078.80
2023-01-21T05:29:56.222Z,101067.64
2023-01-21T05:33:08.893Z,101103.56
2023-01-21T05:36:14.730Z,101091.83
2023-01-21T05:39:21.728Z,101102.50
2023-01-21T05:42:27.015Z,101092.29
2023-01-21T05:45:33.083Z,101115.97
2023-01-21T05:48:38.836Z,101127.44
2023-01-21T05:51:43.826Z,101138.48
2023-01-21T05:55:00.942Z,101152.08
2023-01-21T05:57:57.227Z,101163.91
2023-01-21T06:01:03.683Z,101146.29
2023-01-21T06:04:02.331Z,101160.44
2023-01-21T06:07:08.228Z,101163.23
2023-01-21T06:10:13.073Z,101169.60
2023-01-21T06:13:19.172Z,101164.58
2023-01-21T06:16:24.751Z,101158.63
2023-01-21T06:19:30.966Z,101169.80
2023-01-21T06:22:36.863Z,101172.87
2023-01-21T06:25:35.593Z,101176.98
2023-01-21T06:28:40.853Z,101179.79
2023-01-21T06:31:47.263Z,101174.20
2023-01-21T06:34:53.826Z,101175.34
2023-01-21T06:38:01.722Z,101174.77
2023-01-21T06:41:09.620Z,101184.11
2023-01-21T06:44:15.892Z,101180.13
2023-01-21T06:47:21.810Z,101190.19
2023-01-21T06:50:30.652Z,101176.59
2023-01-21T06:53:41.652Z,101166.65
2023-01-21T06:56:51.721Z,101181.98
2023-01-21T06:59:57.863Z,101181.98
2023-01-21T07:03:04.233Z,101190.83
2023-01-21T07:06:11.071Z,101181.48
2023-01-21T07:09:18.187Z,101165.66
2023-01-21T07:12:23.912Z,101187.83
2023-01-21T07:15:32.474Z,101184.55
2023-01-21T07:18:38.547Z,101196.13
2023-01-21T07:21:43.918Z,101210.19
2023-01-21T07:24:52.000Z,101216.09
2023-01-21T07:27:59.032Z,101209.52
2023-01-21T07:31:05.228Z,101223.95
2023-01-21T07:34:12.342Z,101235.52
2023-01-21T07:37:17.598Z,101243.52
2023-01-21T07:40:26.618Z,101251.61
2023-01-21T07:43:35.922Z,101251.98
2023-01-21T07:46:41.585Z,101277.36
2023-01-21T07:49:48.735Z,101266.45
2023-01-21T07:52:55.648Z,101268.75
2023-01-21T07:56:01.067Z,101276.08
2023-01-21T07:59:06.048Z,101262.38
2023-01-21T08:02:13.024Z,101254.66
2023-01-21T08:05:20.726Z,101272.20
2023-01-21T08:08:26.944Z,101274.80
2023-01-21T08:11:34.061Z,101284.92
2023-01-21T08:14:39.061Z,101290.13
2023-01-21T08:17:44.897Z,101290.53
2023-01-21T08:20:51.428Z,101286.75
2023-01-21T08:23:57.948Z,101267.68
2023-01-21T08:27:03.859Z,101269.00
2023-01-21T08:30:09.467Z,101258.28
2023-01-21T08:33:15.631Z,101258.08
2023-01-21T08:36:25.056Z,101251.13
2023-01-21T08:39:30.921Z,101246.77
2023-01-21T08:42:38.473Z,101252.89
2023-01-21T08:45:44.254Z,101261.67
2023-01-21T08:48:49.903Z,101257.25
2023-01-21T08:51:56.694Z,101264.20
2023-01-21T08:55:01.820Z,101275.28
2023-01-21T08:58:08.600Z,101276.73
2023-01-21T09:01:25.982Z,101271.06
2023-01-21T09:04:26.090Z,101280.00
2023-01-21T09:07:19.129Z,101301.41
2023-01-21T09:10:26.855Z,101308.06
2023-01-21T09:13:32.584Z,101321.67
2023-01-21T09:16:43.020Z,101325.16
2023-01-21T09:19:49.675Z,101336.30
2023-01-21T09:22:56.454Z,101347.00
2023-01-21T09:25:56.611Z,101346.05
2023-01-21T09:29:12.171Z,101351.65
2023-01-21T09:32:18.833Z,101355.30
2023-01-21T09:35:26.092Z,101359.36
2023-01-21T09:38:31.716Z,101355.95
2023-01-21T09:41:46.587Z,101368.58
2023-01-21T09:44:59.945Z,101366.48
2023-01-21T09:48:05.198Z,101367.26
2023-01-21T09:51:12.349Z,101352.98
2023-01-21T09:54:18.541Z,101356.63
2023-01-21T09:57:55.041Z,101344.64
2023-01-21T10:01:09.883Z,101340.89
2023-01-21T10:04:13.283Z,101353.69
2023-01-21T10:07:35.364Z,101340.64
2023-01-21T10:11:04.586Z,101341.67
2023-01-21T10:14:46.769Z,101335.16
2023-01-21T10:18:23.715Z,101335.52
2023-01-21T10:21:48.167Z,101334.22
2023-01-21T10:24:58.627Z,101324.44
2023-01-21T10:28:06.590Z,101326.75
2023-01-21T10:31:37.523Z,101340.88
2023-01-21T10:34:47.203Z,101340.82
2023-01-21T10:38:12.171Z,101336.02
2023-01-21T10:41:49.553Z,101330.43
2023-01-21T10:45:18.963Z,101344.62
2023-01-21T10:48:34.944Z,101332.36
2023-01-21T10:51:48.689Z,101329.73
2023-01-21T10:55:10.349Z,101321.52
2023-01-21T10:58:44.382Z,101318.37
2023-01-21T11:02:02.107Z,101329.06
2023-01-21T11:05:08.957Z,101338.31
2023-01-21T11:08:14.635Z,101340.59
2023-01-21T11:11:21.516Z,101364.10
2023-01-21T11:14:27.519Z,101366.47
2023-01-21T11:17:46.070Z,101378.64
2023-01-21T11:20:57.210Z,101380.17
2023-01-21T11:24:17.131Z,101387.42
2023-01-21T11:27:33.787Z,101383.75
2023-01-21T11:30:51.951Z,101376.25
2023-01-21T11:34:00.739Z,101379.75
2023-01-21T11:37:20.665Z,101381.55
2023-01-21T11:40:36.160Z,101381.61
2023-01-21T11:44:01.517Z,101386.07
2023-01-21T11:47:07.797Z,101380.66
2023-01-21T11:50:19.976Z,101389.70
2023-01-21T11:53:32.494Z,101396.52
2023-01-21T11:56:39.127Z,101397.02
2023-01-21T11:59:50.724Z,101401.82
2023-01-21T12:03:01.708Z,101406.05
2023-01-21T12:06:07.473Z,101400.42
2023-01-21T12:09:18.422Z,101407.23
2023-01-21T12:12:46.697Z,101415.43
2023-01-21T12:16:22.306Z,101418.25
2023-01-21T12:19:50.641Z,101415.46
2023-01-21T12:23:06.339Z,101423.31
2023-01-21T12:26:28.744Z,101419.30
2023-01-21T12:29:44.554Z,101420.63
2023-01-21T12:32:57.014Z,101430.04
2023-01-21T12:36:06.992Z,101426.75
2023-01-21T12:39:29.862Z,101437.37
2023-01-21T12:42:45.527Z,101446.25
2023-01-21T12:46:02.924Z,101450.98
2023-01-21T12:49:16.673Z,101454.24
2023-01-21T12:52:45.825Z,101454.88
2023-01-21T12:56:30.651Z,101470.75
2023-01-21T12:59:43.546Z,101474.80
2023-01-21T13:03:11.185Z,101483.92
2023-01-21T13:06:53.957Z,101482.01
2023-01-21T13:10:00.222Z,101479.05
2023-01-21T13:12:53.144Z,101484.45
2023-01-21T13:16:00.871Z,101480.19
2023-01-21T13:19:08.382Z,101474.66
2023-01-21T13:22:33.794Z,101490.00
2023-01-21T13:25:49.950Z,101503.75
2023-01-21T13:29:06.548Z,101511.23
2023-01-21T13:32:40.106Z,101510.96
2023-01-21T13:36:01.477Z,101516.53
2023-01-21T13:39:19.646Z,101515.39
2023-01-21T13:42:56.737Z,101512.12
2023-01-21T13:46:32.515Z,101522.95
2023-01-21T13:50:20.043Z,101526.63
2023-01-21T13:53:41.550Z,101527.52
2023-01-21T13:57:10.048Z,101535.69
2023-01-21T14:00:37.395Z,101533.25
2023-01-21T14:04:02.811Z,101547.45
2023-01-21T14:07:21.214Z,101550.62
2023-01-21T14:10:37.831Z,101560.00
2023-01-21T14:14:05.994Z,101554.11
2023-01-21T14:17:59.275Z,101555.73
2023-01-21T14:21:31.243Z,101558.33
2023-01-21T14:24:45.184Z,101557.39
2023-01-21T14:28:22.993Z,101559.16
2023-01-21T14:31:33.898Z,101563.32
2023-01-21T14:34:47.052Z,101568.05
2023-01-21T14:38:08.216Z,101566.70
2023-01-21T14:41:25.399Z,101569.23
2023-01-21T14:44:52.015Z,101576.58
2023-01-21T14:48:09.200Z,101576.20
2023-01-21T14:51:27.781Z,101579.48
2023-01-21T14:54:40.416Z,101574.24
2023-01-21T14:57:54.710Z,101586.05
2023-01-21T15:01:02.468Z,101579.86
2023-01-21T15:04:09.161Z,101587.50
2023-01-21T15:07:16.970Z,101592.33
2023-01-21T15:10:31.747Z,101588.95
2023-01-21T15:13:52.027Z,101595.34
2023-01-21T15:16:58.766Z,101588.17
2023-01-21T15:20:08.906Z,101606.73
2023-01-21T15:23:44.323Z,101606.64
2023-01-21T15:26:48.943Z,101615.91
2023-01-21T15:30:18.824Z,101621.52
2023-01-21T15:33:26.577Z,101621.11
2023-01-21T15:36:39.786Z,101627.78
2023-01-21T15:39:48.128Z,101623.22
2023-01-21T15:43:35.179Z,101629.30
2023-01-21T15:46:47.972Z,101631.23
2023-01-21T15:50:26.790Z,101630.09
2023-01-21T15:54:28.248Z,101643.92
2023-01-21T15:58:07.580Z,101647.09
2023-01-21T16:01:47.250Z,101653.85
2023-01-21T16:05:15.557Z,101662.64
2023-01-21T16:08:37.334Z,101663.93
2023-01-21T16:12:04.065Z,101669.72
2023-01-21T16:15:33.121Z,101676.11
2023-01-21T16:19:11.223Z,101684.02
2023-01-21T16:22:18.363Z,101685.84
2023-01-21T16:25:29.448Z,101686.91
2023-01-21T16:28:35.687Z,101682.07
2023-01-21T16:31:44.595Z,101692.59
2023-01-21T16:34:55.389Z,101695.20
2023-01-21T16:38:03.650Z,101692.59
2023-01-21T16:41:24.962Z,101698.51
2023-01-21T16:44:32.550Z,101701.89
2023-01-21T16:47:50.911Z,101704.41
2023-01-21T16:50:58.338Z,101708.73
2023-01-21T16:54:07.082Z,101716.59
2023-01-21T16:57:15.202Z,101714.84
2023-01-21T17:00:24.692Z,101717.63
2023-01-21T17:03:25.750Z,101734.27
2023-01-21T17:06:35.730Z,101740.53
2023-01-21T17:09:45.633Z,101736.88
2023-01-21T17:12:54.673Z,101756.96
2023-01-21T17:16:07.388Z,101755.41
2023-01-21T17:19:23.201Z,101749.06
2023-01-21T17:22:37.784Z,101762.30
2023-01-21T17:25:43.629Z,101765.78
2023-01-21T17:29:09.950Z,101763.83
2023-01-21T17:32:21.647Z,101767.31
2023-01-21T17:35:31.844Z,101761.22
2023-01-21T17:38:44.415Z,101774.09
2023-01-21T17:41:56.049Z,101773.88
2023-01-21T17:45:04.687Z,101780.94
2023-01-21T17:48:14.581Z,101787.23
2023-01-21T17:51:29.935Z,101787.23
2023-01-21T17:54:40.166Z,101791.08
2023-01-21T17:57:50.103Z,101791.84
2023-01-21T18:01:01.600Z,101799.20
2023-01-21T18:04:07.327Z,101804.40
2023-01-21T18:07:13.928Z,101801.59
2023-01-21T18:10:30.630Z,101803.27
2023-01-21T18:13:38.028Z,101797.25
2023-01-21T18:16:44.475Z,101802.87
2023-01-21T18:19:57.078Z,101804.98
2023-01-21T18:23:04.380Z,101803.45
2023-01-21T18:26:10.219Z,101810.02
2023-01-21T18:29:16.432Z,101805.39
2023-01-21T18:32:24.108Z,101815.05
2023-01-21T18:35:29.655Z,101822.88
2023-01-21T18:38:31.593Z,101826.27
2023-01-21T18:41:24.683Z,101824.16
2023-01-21T18:44:30.931Z,101831.21
2023-01-21T18:47:36.804Z,101832.56
2023-01-21T18:50:43.644Z,101836.25
2023-01-21T18:53:50.559Z,101840.31
2023-01-21T18:56:57.907Z,101830.83
2023-01-21T19:00:07.551Z,101832.09
2023-01-21T19:03:15.272Z,101846.78
2023-01-21T19:06:30.408Z,101844.83
2023-01-21T19:09:40.598Z,101843.10
2023-01-21T19:12:49.029Z,101843.10
2023-01-21T19:15:55.335Z,101845.98
2023-01-21T19:19:01.044Z,101840.56
2023-01-21T19:22:05.890Z,101850.82
2023-01-21T19:25:11.609Z,101850.32
2023-01-21T19:28:18.134Z,101859.89
2023-01-21T19:31:27.559Z,101862.50
2023-01-21T19:34:35.871Z,101875.62
2023-01-21T19:37:44.343Z,101874.78
2023-01-21T19:40:52.554Z,101887.98
2023-01-21T19:43:59.169Z,101880.34
2023-01-21T19:47:05.575Z,101883.33
2023-01-21T19:50:16.214Z,101883.41
2023-01-21T19:53:24.057Z,101878.10
2023-01-21T19:56:31.475Z,101878.95
2023-01-21T19:59:37.298Z,101887.20
2023-01-21T20:02:43.411Z,101887.48
2023-01-21T20:05:49.484Z,101886.82
2023-01-21T20:08:54.849Z,101888.96
2023-01-21T20:12:03.367Z,101897.05
2023-01-21T20:15:11.206Z,101899.83
2023-01-21T20:18:19.815Z,101902.13
2023-01-21T20:21:26.657Z,101903.39
2023-01-21T20:24:34.207Z,101917.80
2023-01-21T20:27:41.136Z,101914.67
2023-01-21T20:30:41.337Z,101917.41
2023-01-21T20:33:36.091Z,101914.52
2023-01-21T20:36:42.446Z,101924.27
2023-01-21T20:39:49.371Z,101934.66
2023-01-21T20:42:59.262Z,101946.47
2023-01-21T20:46:07.190Z,101942.69
2023-01-21T20:49:14.008Z,101956.88
2023-01-21T20:52:21.312Z,101959.05
2023-01-21T20:55:30.579Z,101961.34
2023-01-21T20:58:37.053Z,101966.28
2023-01-21T21:01:45.199Z,101966.02
2023-01-21T21:04:51.458Z,101969.34
2023-01-21T21:07:59.125Z,101974.57
2023-01-21T21:11:06.853Z,101971.87
2023-01-21T21:14:13.104Z,101986.91
2023-01-21T21:17:22.229Z,101986.73
2023-01-21T21:20:35.554Z,101989.17
2023-01-21T21:23:43.389Z,101995.47
2023-01-21T21:26:50.688Z,101991.88
2023-01-21T21:30:01.691Z,101996.37
2023-01-21T21:33:11.891Z,101991.29
2023-01-21T21:36:19.730Z,101996.99
2023-01-21T21:39:28.871Z,101997.14
2023-01-21T21:42:53.513Z,102000.05
2023-01-21T21:46:18.511Z,101995.98
2023-01-21T21:49:24.471Z,101996.88
2023-01-21T21:52:31.224Z,102000.52
2023-01-21T21:55:38.526Z,102003.55
2023-01-21T21:58:45.419Z,102004.66
2023-01-21T22:01:50.802Z,102011.59
2023-01-21T22:04:59.645Z,102018.16
2023-01-21T22:08:08.359Z,102023.88
2023-01-21T22:11:15.797Z,102024.06
2023-01-21T22:14:21.164Z,102035.67
2023-01-21T22:17:27.762Z,102034.11
2023-01-21T22:20:37.459Z,102045.02
2023-01-21T22:23:45.902Z,102040.80
2023-01-21T22:26:51.121Z,102045.41
2023-01-21T22:30:01.296Z,102040.68
2023-01-21T22:33:07.959Z,102041.15
2023-01-21T22:36:19.354Z,102040.52
2023-01-21T22:39:25.637Z,102051.05
2023-01-21T22:42:24.684Z,102052.11
2023-01-21T22:45:29.540Z,102045.66
2023-01-21T22:48:34.944Z,102047.37
2023-01-21T22:51:42.079Z,102062.70
2023-01-21T22:54:51.207Z,102064.51
2023-01-21T22:58:00.190Z,102054.66
2023-01-21T23:01:05.214Z,102065.48
2023-01-21T23:04:11.680Z,102067.21
2023-01-21T23:07:18.417Z,102068.01
2023-01-21T23:10:25.177Z,102072.06
2023-01-21T23:13:34.077Z,102069.66
2023-01-21T23:16:41.170Z,102073.33
2023-01-21T23:19:46.926Z,102063.87
2023-01-21T23:22:53.943Z,102069.57
2023-01-21T23:26:00.444Z,102079.36
2023-01-21T23:29:09.696Z,102081.98
2023-01-21T23:32:18.041Z,102090.17
2023-01-21T23:35:28.383Z,102090.09
2023-01-21T23:38:34.733Z,102092.80
2023-01-21T23:41:41.475Z,102099.55
2023-01-21T23:44:47.386Z,102098.03
2023-01-21T23:47:54.826Z,102110.91
2023-01-21T23:51:01.003Z,102115.34
2023-01-21T23:54:07.952Z,102112.34
2023-01-21T23:57:14.711Z,102119.28
